createdAt,value
2016-11-27T00:00:07.545Z,955.23
2016-11-27T00:01:08.592Z,955.20
2016-11-27T00:02:15.855Z,955.18
2016-11-27T00:03:07.457Z,955.15
2016-11-27T00:04:08.046Z,955.18
2016-11-27T00:05:07.630Z,955.21
2016-11-27T00:06:08.192Z,955.20
2016-11-27T00:07:08.680Z,955.18
2016-11-27T00:08:08.296Z,955.19
2016-11-27T00:09:07.873Z,955.17
2016-11-27T00:10:07.385Z,955.16
2016-11-27T00:11:07.947Z,955.15
2016-11-27T00:12:07.610Z,955.16
2016-11-27T00:13:08.341Z,955.12
2016-11-27T00:14:07.995Z,955.14
2016-11-27T00:15:07.543Z,955.16
2016-11-27T00:16:08.581Z,955.15
2016-11-27T00:17:08.135Z,955.13
2016-11-27T00:18:07.315Z,955.10
2016-11-27T00:19:07.886Z,955.14
2016-11-27T00:20:07.460Z,955.15
2016-11-27T00:21:08.010Z,955.13
2016-11-27T00:22:07.566Z,955.13
2016-11-27T00:23:08.205Z,955.11
2016-11-27T00:24:07.770Z,955.10
2016-11-27T00:25:07.395Z,955.06
2016-11-27T00:26:07.987Z,955.08
2016-11-27T00:27:07.853Z,955.10
2016-11-27T00:28:07.407Z,955.10
2016-11-27T00:29:08.063Z,955.07
2016-11-27T00:30:07.638Z,955.03
2016-11-27T00:31:08.159Z,955.03
2016-11-27T00:32:07.720Z,955.02
2016-11-27T00:33:08.267Z,954.97
2016-11-27T00:34:07.898Z,954.95
2016-11-27T00:35:07.491Z,954.96
2016-11-27T00:36:08.087Z,954.96
2016-11-27T00:37:07.643Z,954.94
2016-11-27T00:38:08.345Z,954.96
2016-11-27T00:39:07.922Z,954.96
2016-11-27T00:40:07.530Z,954.98
2016-11-27T00:41:08.287Z,954.99
2016-11-27T00:42:07.826Z,954.99
2016-11-27T00:43:07.302Z,955.00
2016-11-27T00:44:07.802Z,955.02
2016-11-27T00:45:07.528Z,954.98
2016-11-27T00:46:08.206Z,955.00
2016-11-27T00:47:07.816Z,955.00
2016-11-27T00:48:07.360Z,955.01
2016-11-27T00:49:08.012Z,954.99
2016-11-27T00:50:07.603Z,955.03
2016-11-27T00:51:08.131Z,955.04
2016-11-27T00:52:07.671Z,955.00
2016-11-27T00:53:08.325Z,954.98
2016-11-27T00:54:08.282Z,954.99
2016-11-27T00:55:07.816Z,954.99
2016-11-27T00:56:07.944Z,954.96
2016-11-27T00:57:07.499Z,954.97
2016-11-27T00:58:07.981Z,955.05
2016-11-27T00:59:07.532Z,955.04
2016-11-27T01:00:08.375Z,954.97
2016-11-27T01:01:07.966Z,955.01
2016-11-27T01:02:07.444Z,954.98
2016-11-27T01:03:08.084Z,954.99
2016-11-27T01:04:07.672Z,954.97
2016-11-27T01:05:08.338Z,954.95
2016-11-27T01:06:07.936Z,954.92
2016-11-27T01:07:07.505Z,954.89
2016-11-27T01:08:08.083Z,954.87
2016-11-27T01:09:07.262Z,954.91
2016-11-27T01:10:07.571Z,954.96
2016-11-27T01:11:07.455Z,954.96
2016-11-27T01:12:07.883Z,954.96
2016-11-27T01:13:08.314Z,954.91
2016-11-27T01:14:07.933Z,954.95
2016-11-27T01:15:07.559Z,954.94
2016-11-27T01:16:07.726Z,954.94
2016-11-27T01:17:08.451Z,954.89
2016-11-27T01:18:08.141Z,954.96
2016-11-27T01:19:07.653Z,954.94
2016-11-27T01:20:08.031Z,954.91
2016-11-27T01:21:07.975Z,954.92
2016-11-27T01:22:07.845Z,954.92
2016-11-27T01:23:07.403Z,954.88
2016-11-27T01:24:07.900Z,954.94
2016-11-27T01:25:07.542Z,954.90
2016-11-27T01:26:08.185Z,954.89
2016-11-27T01:27:07.362Z,954.87
2016-11-27T01:28:08.276Z,954.91
2016-11-27T01:29:08.510Z,954.95
2016-11-27T01:30:07.533Z,954.94
2016-11-27T01:31:07.985Z,954.93
2016-11-27T01:32:07.899Z,954.95
2016-11-27T01:33:08.382Z,954.93
2016-11-27T01:34:07.962Z,954.93
2016-11-27T01:35:07.472Z,954.90
2016-11-27T01:36:07.556Z,954.98
2016-11-27T01:37:08.164Z,954.92
2016-11-27T01:38:07.686Z,954.93
2016-11-27T01:39:08.436Z,954.94
2016-11-27T01:40:08.036Z,954.95
2016-11-27T01:41:07.580Z,954.96
2016-11-27T01:42:08.170Z,954.98
2016-11-27T01:43:07.721Z,954.92
2016-11-27T01:44:07.347Z,954.88
2016-11-27T01:45:07.869Z,954.96
2016-11-27T01:46:07.418Z,954.93
2016-11-27T01:47:07.976Z,954.94
2016-11-27T01:48:07.969Z,954.97
2016-11-27T01:49:07.508Z,954.93
2016-11-27T01:50:08.178Z,954.93
2016-11-27T01:51:07.764Z,954.93
2016-11-27T01:52:07.340Z,954.95
2016-11-27T01:53:07.924Z,954.93
2016-11-27T01:54:07.481Z,954.92
2016-11-27T01:55:08.104Z,954.89
2016-11-27T01:56:07.703Z,954.90
2016-11-27T01:57:07.742Z,954.93
2016-11-27T01:58:08.143Z,954.91
2016-11-27T01:59:07.831Z,954.93
2016-11-27T02:00:08.249Z,954.92
2016-11-27T02:01:07.971Z,954.92
2016-11-27T02:02:07.764Z,954.90
2016-11-27T02:03:07.461Z,954.89
2016-11-27T02:04:08.209Z,954.90
2016-11-27T02:05:07.706Z,954.90
2016-11-27T02:06:08.172Z,954.88
2016-11-27T02:07:07.649Z,954.88
2016-11-27T02:08:07.638Z,954.88
2016-11-27T02:09:08.160Z,954.86
2016-11-27T02:10:07.327Z,954.86
2016-11-27T02:11:07.523Z,954.86
2016-11-27T02:12:07.952Z,954.86
2016-11-27T02:13:08.196Z,954.86
2016-11-27T02:14:07.673Z,954.87
2016-11-27T02:15:08.361Z,954.86
2016-11-27T02:16:08.103Z,954.87
2016-11-27T02:17:07.834Z,954.89
2016-11-27T02:18:07.616Z,954.88
2016-11-27T02:19:08.054Z,954.88
2016-11-27T02:20:07.461Z,954.88
2016-11-27T02:21:08.200Z,954.86
2016-11-27T02:22:07.695Z,954.86
2016-11-27T02:23:07.488Z,954.86
2016-11-27T02:24:07.514Z,954.86
2016-11-27T02:25:07.950Z,954.86
2016-11-27T02:26:08.293Z,954.83
2016-11-27T02:27:07.951Z,954.83
2016-11-27T02:28:07.641Z,954.78
2016-11-27T02:29:08.360Z,954.76
2016-11-27T02:30:07.959Z,954.80
2016-11-27T02:31:07.622Z,954.78
2016-11-27T02:32:08.281Z,954.77
2016-11-27T02:33:07.737Z,954.78
2016-11-27T02:34:07.463Z,954.76
2016-11-27T02:35:08.212Z,954.69
2016-11-27T02:36:07.859Z,954.67
2016-11-27T02:37:07.413Z,954.68
2016-11-27T02:38:08.321Z,954.66
2016-11-27T02:39:08.001Z,954.70
2016-11-27T02:40:07.576Z,954.66
2016-11-27T02:41:08.125Z,954.66
2016-11-27T02:42:07.672Z,954.65
2016-11-27T02:43:08.153Z,954.65
2016-11-27T02:44:07.937Z,954.67
2016-11-27T02:45:07.577Z,954.66
2016-11-27T02:46:08.160Z,954.64
2016-11-27T02:47:07.734Z,954.64
2016-11-27T02:48:08.461Z,954.64
2016-11-27T02:49:08.163Z,954.64
2016-11-27T02:50:07.660Z,954.65
2016-11-27T02:51:08.277Z,954.64
2016-11-27T02:52:07.924Z,954.63
2016-11-27T02:53:07.412Z,954.60
2016-11-27T02:54:08.063Z,954.57
2016-11-27T02:55:07.570Z,954.60
2016-11-27T02:56:08.162Z,954.62
2016-11-27T02:57:07.705Z,954.62
2016-11-27T02:58:08.228Z,954.65
2016-11-27T02:59:07.819Z,954.63
2016-11-27T03:00:07.645Z,954.67
2016-11-27T03:01:08.242Z,954.69
2016-11-27T03:02:07.952Z,954.64
2016-11-27T03:03:07.463Z,954.68
2016-11-27T03:04:08.122Z,954.67
2016-11-27T03:05:07.614Z,954.67
2016-11-27T03:06:08.152Z,954.66
2016-11-27T03:07:07.715Z,954.64
2016-11-27T03:08:08.403Z,954.62
2016-11-27T03:09:08.401Z,954.64
2016-11-27T03:10:07.993Z,954.67
2016-11-27T03:11:07.591Z,954.64
2016-11-27T03:12:08.207Z,954.68
2016-11-27T03:13:07.752Z,954.66
2016-11-27T03:14:08.353Z,954.68
2016-11-27T03:15:08.020Z,954.61
2016-11-27T03:16:07.606Z,954.65
2016-11-27T03:17:08.343Z,954.66
2016-11-27T03:18:08.259Z,954.67
2016-11-27T03:19:07.693Z,954.63
2016-11-27T03:20:08.204Z,954.65
2016-11-27T03:21:07.708Z,954.61
2016-11-27T03:22:08.335Z,954.64
2016-11-27T03:23:07.960Z,954.66
2016-11-27T03:24:07.523Z,954.64
2016-11-27T03:25:08.126Z,954.69
2016-11-27T03:26:07.662Z,954.66
2016-11-27T03:27:07.525Z,954.71
2016-11-27T03:28:08.250Z,954.76
2016-11-27T03:29:07.851Z,954.75
2016-11-27T03:30:07.424Z,954.76
2016-11-27T03:31:08.001Z,954.75
2016-11-27T03:32:07.578Z,954.77
2016-11-27T03:33:08.233Z,954.75
2016-11-27T03:34:07.807Z,954.71
2016-11-27T03:35:07.353Z,954.74
2016-11-27T03:36:07.973Z,954.74
2016-11-27T03:37:07.562Z,954.69
2016-11-27T03:38:08.236Z,954.69
2016-11-27T03:39:07.783Z,954.65
2016-11-27T03:40:07.345Z,954.68
2016-11-27T03:41:07.836Z,954.74
2016-11-27T03:42:07.410Z,954.74
2016-11-27T03:43:08.032Z,954.72
2016-11-27T03:44:07.717Z,954.74
2016-11-27T03:45:07.814Z,954.78
2016-11-27T03:46:07.314Z,954.78
2016-11-27T03:47:07.906Z,954.83
2016-11-27T03:48:07.562Z,954.77
2016-11-27T03:49:08.154Z,954.79
2016-11-27T03:50:07.644Z,954.73
2016-11-27T03:51:08.211Z,954.77
2016-11-27T03:52:07.762Z,954.80
2016-11-27T03:53:08.081Z,954.77
2016-11-27T03:54:07.642Z,954.76
2016-11-27T03:55:08.247Z,954.74
2016-11-27T03:56:07.734Z,954.77
2016-11-27T03:57:08.378Z,954.73
2016-11-27T03:58:07.973Z,954.67
2016-11-27T03:59:07.562Z,954.75
2016-11-27T04:00:08.224Z,954.69
2016-11-27T04:01:07.671Z,954.72
2016-11-27T04:02:07.964Z,954.71
2016-11-27T04:03:07.591Z,954.71
2016-11-27T04:04:08.159Z,954.67
2016-11-27T04:05:07.666Z,954.65
2016-11-27T04:06:08.298Z,954.65
2016-11-27T04:07:07.953Z,954.63
2016-11-27T04:08:07.436Z,954.64
2016-11-27T04:09:07.999Z,954.61
2016-11-27T04:10:07.461Z,954.64
2016-11-27T04:11:07.997Z,954.63
2016-11-27T04:12:07.541Z,954.57
2016-11-27T04:13:08.204Z,954.63
2016-11-27T04:14:07.804Z,954.59
2016-11-27T04:15:07.354Z,954.65
2016-11-27T04:16:07.960Z,954.58
2016-11-27T04:17:07.599Z,954.59
2016-11-27T04:18:08.212Z,954.65
2016-11-27T04:19:07.701Z,954.67
2016-11-27T04:20:07.952Z,954.64
2016-11-27T04:21:07.631Z,954.66
2016-11-27T04:22:08.190Z,954.63
2016-11-27T04:23:08.134Z,954.68
2016-11-27T04:24:07.737Z,954.66
2016-11-27T04:25:08.422Z,954.65
2016-11-27T04:26:08.050Z,954.70
2016-11-27T04:27:07.569Z,954.69
2016-11-27T04:28:08.238Z,954.74
2016-11-27T04:29:07.825Z,954.74
2016-11-27T04:30:07.464Z,954.73
2016-11-27T04:31:08.050Z,954.74
2016-11-27T04:32:07.690Z,954.73
2016-11-27T04:33:08.386Z,954.66
2016-11-27T04:34:07.968Z,954.68
2016-11-27T04:35:07.549Z,954.67
2016-11-27T04:36:08.163Z,954.67
2016-11-27T04:37:07.707Z,954.65
2016-11-27T04:38:08.220Z,954.72
2016-11-27T04:39:07.403Z,954.70
2016-11-27T04:40:07.934Z,954.72
2016-11-27T04:41:07.474Z,954.77
2016-11-27T04:42:07.971Z,954.74
2016-11-27T04:43:07.871Z,954.79
2016-11-27T04:44:07.401Z,954.75
2016-11-27T04:45:07.942Z,954.77
2016-11-27T04:46:07.564Z,954.75
2016-11-27T04:47:08.175Z,954.75
2016-11-27T04:48:07.738Z,954.73
2016-11-27T04:49:08.432Z,954.75
2016-11-27T04:50:07.971Z,954.77
2016-11-27T04:51:07.543Z,954.79
2016-11-27T04:52:08.062Z,954.77
2016-11-27T04:53:07.831Z,954.74
2016-11-27T04:54:07.350Z,954.71
2016-11-27T04:55:07.974Z,954.70
2016-11-27T04:56:07.566Z,954.76
2016-11-27T04:57:08.209Z,954.75
2016-11-27T04:58:13.292Z,954.79
2016-11-27T04:59:08.012Z,954.78
2016-11-27T05:00:07.630Z,954.79
2016-11-27T05:01:08.303Z,954.80
2016-11-27T05:02:07.854Z,954.82
2016-11-27T05:03:07.425Z,954.80
2016-11-27T05:04:08.096Z,954.78
2016-11-27T05:05:07.650Z,954.83
2016-11-27T05:06:08.212Z,954.83
2016-11-27T05:07:07.663Z,954.83
2016-11-27T05:08:08.490Z,954.85
2016-11-27T05:09:08.062Z,954.84
2016-11-27T05:10:07.663Z,954.84
2016-11-27T05:11:08.170Z,954.85
2016-11-27T05:12:07.681Z,954.90
2016-11-27T05:13:08.262Z,954.83
2016-11-27T05:14:07.826Z,954.85
2016-11-27T05:15:07.320Z,954.79
2016-11-27T05:16:07.969Z,954.83
2016-11-27T05:17:07.640Z,954.81
2016-11-27T05:18:08.266Z,954.81
2016-11-27T05:19:07.761Z,954.82
2016-11-27T05:20:07.391Z,954.84
2016-11-27T05:21:08.050Z,954.83
2016-11-27T05:22:07.615Z,954.85
2016-11-27T05:23:08.631Z,954.79
2016-11-27T05:24:08.221Z,954.79
2016-11-27T05:25:10.580Z,954.82
2016-11-27T05:26:08.261Z,954.76
2016-11-27T05:27:07.928Z,954.78
2016-11-27T05:28:07.433Z,954.81
2016-11-27T05:29:08.222Z,954.83
2016-11-27T05:30:07.656Z,954.83
2016-11-27T05:31:08.051Z,954.87
2016-11-27T05:32:07.674Z,954.83
2016-11-27T05:33:08.255Z,954.90
2016-11-27T05:34:07.808Z,954.87
2016-11-27T05:35:07.311Z,954.86
2016-11-27T05:36:07.854Z,954.88
2016-11-27T05:37:07.419Z,954.90
2016-11-27T05:38:07.995Z,954.85
2016-11-27T05:39:07.480Z,954.92
2016-11-27T05:40:08.142Z,954.92
2016-11-27T05:41:07.623Z,954.93
2016-11-27T05:42:08.174Z,954.96
2016-11-27T05:43:07.771Z,954.94
2016-11-27T05:44:07.343Z,954.91
2016-11-27T05:45:07.822Z,954.92
2016-11-27T05:46:07.709Z,954.89
2016-11-27T05:47:09.863Z,954.91
2016-11-27T05:48:07.364Z,954.90
2016-11-27T05:49:07.862Z,954.88
2016-11-27T05:50:07.994Z,954.90
2016-11-27T05:51:07.442Z,954.95
2016-11-27T05:52:08.005Z,954.90
2016-11-27T05:53:07.508Z,954.94
2016-11-27T05:54:08.131Z,954.93
2016-11-27T05:55:07.721Z,954.97
2016-11-27T05:56:08.399Z,954.97
2016-11-27T05:57:07.994Z,954.97
2016-11-27T05:58:07.581Z,954.93
2016-11-27T05:59:08.226Z,954.96
2016-11-27T06:00:07.853Z,954.98
2016-11-27T06:01:07.378Z,955.01
2016-11-27T06:02:07.976Z,955.02
2016-11-27T06:03:07.480Z,954.99
2016-11-27T06:04:08.094Z,954.98
2016-11-27T06:05:07.622Z,954.97
2016-11-27T06:06:08.220Z,954.95
2016-11-27T06:07:07.743Z,955.00
2016-11-27T06:08:08.429Z,955.03
2016-11-27T06:09:08.024Z,955.02
2016-11-27T06:10:07.629Z,955.02
2016-11-27T06:11:08.316Z,955.02
2016-11-27T06:12:07.883Z,955.00
2016-11-27T06:13:07.465Z,955.03
2016-11-27T06:14:08.063Z,955.00
2016-11-27T06:15:07.634Z,954.98
2016-11-27T06:16:08.544Z,955.02
2016-11-27T06:17:07.763Z,955.02
2016-11-27T06:18:07.285Z,955.06
2016-11-27T06:19:08.709Z,955.05
2016-11-27T06:20:08.305Z,955.06
2016-11-27T06:21:08.089Z,955.02
2016-11-27T06:22:07.652Z,955.06
2016-11-27T06:23:08.345Z,955.07
2016-11-27T06:24:07.897Z,955.10
2016-11-27T06:25:07.464Z,955.11
2016-11-27T06:26:08.071Z,955.12
2016-11-27T06:27:08.348Z,955.06
2016-11-27T06:28:07.942Z,955.11
2016-11-27T06:29:07.531Z,955.14
2016-11-27T06:30:08.070Z,955.11
2016-11-27T06:31:07.570Z,955.13
2016-11-27T06:32:08.150Z,955.11
2016-11-27T06:33:07.697Z,955.13
2016-11-27T06:34:08.142Z,955.13
2016-11-27T06:35:08.137Z,955.20
2016-11-27T06:36:07.284Z,955.22
2016-11-27T06:37:07.866Z,955.28
2016-11-27T06:38:07.508Z,955.29
2016-11-27T06:39:08.149Z,955.24
2016-11-27T06:40:07.638Z,955.26
2016-11-27T06:41:08.198Z,955.27
2016-11-27T06:42:07.786Z,955.24
2016-11-27T06:43:07.406Z,955.25
2016-11-27T06:44:08.043Z,955.30
2016-11-27T06:45:07.518Z,955.29
2016-11-27T06:46:08.133Z,955.28
2016-11-27T06:47:07.737Z,955.32
2016-11-27T06:48:08.184Z,955.32
2016-11-27T06:49:07.822Z,955.31
2016-11-27T06:50:07.427Z,955.31
2016-11-27T06:51:07.886Z,955.37
2016-11-27T06:52:07.542Z,955.34
2016-11-27T06:53:08.524Z,955.38
2016-11-27T06:54:08.108Z,955.42
2016-11-27T06:55:07.632Z,955.41
2016-11-27T06:56:08.201Z,955.37
2016-11-27T06:57:07.775Z,955.39
2016-11-27T06:58:07.392Z,955.37
2016-11-27T06:59:08.052Z,955.38
2016-11-27T07:00:07.608Z,955.37
2016-11-27T07:01:08.090Z,955.34
2016-11-27T07:02:07.998Z,955.35
2016-11-27T07:03:07.526Z,955.39
2016-11-27T07:04:08.096Z,955.35
2016-11-27T07:05:07.918Z,955.42
2016-11-27T07:06:07.607Z,955.44
2016-11-27T07:07:08.180Z,955.41
2016-11-27T07:08:07.737Z,955.45
2016-11-27T07:09:08.327Z,955.48
2016-11-27T07:10:07.912Z,955.41
2016-11-27T07:11:07.477Z,955.41
2016-11-27T07:12:07.941Z,955.42
2016-11-27T07:13:07.459Z,955.37
2016-11-27T07:14:07.987Z,955.44
2016-11-27T07:15:07.618Z,955.45
2016-11-27T07:16:08.308Z,955.42
2016-11-27T07:17:08.063Z,955.40
2016-11-27T07:18:07.718Z,955.41
2016-11-27T07:19:07.371Z,955.39
2016-11-27T07:20:07.953Z,955.40
2016-11-27T07:21:08.306Z,955.42
2016-11-27T07:22:07.878Z,955.40
2016-11-27T07:23:07.487Z,955.40
2016-11-27T07:24:08.085Z,955.43
2016-11-27T07:25:07.679Z,955.42
2016-11-27T07:26:08.326Z,955.48
2016-11-27T07:27:07.893Z,955.48
2016-11-27T07:28:07.466Z,955.48
2016-11-27T07:29:08.053Z,955.55
2016-11-27T07:30:07.658Z,955.58
2016-11-27T07:31:08.302Z,955.56
2016-11-27T07:32:07.979Z,955.59
2016-11-27T07:33:07.503Z,955.59
2016-11-27T07:34:08.029Z,955.62
2016-11-27T07:35:07.626Z,955.57
2016-11-27T07:36:08.358Z,955.62
2016-11-27T07:37:07.956Z,955.51
2016-11-27T07:38:07.549Z,955.53
2016-11-27T07:39:08.154Z,955.58
2016-11-27T07:40:07.653Z,955.57
2016-11-27T07:41:08.276Z,955.52
2016-11-27T07:42:07.851Z,955.54
2016-11-27T07:43:07.411Z,955.55
2016-11-27T07:44:08.037Z,955.54
2016-11-27T07:45:07.579Z,955.58
2016-11-27T07:46:08.206Z,955.56
2016-11-27T07:47:07.766Z,955.58
2016-11-27T07:48:07.304Z,955.56
2016-11-27T07:49:07.796Z,955.48
2016-11-27T07:50:07.327Z,955.51
2016-11-27T07:51:07.815Z,955.53
2016-11-27T07:52:07.328Z,955.53
2016-11-27T07:53:07.888Z,955.49
2016-11-27T07:54:07.539Z,955.49
2016-11-27T07:55:08.171Z,955.53
2016-11-27T07:56:07.755Z,955.49
2016-11-27T07:57:08.377Z,955.50
2016-11-27T07:58:08.192Z,955.48
2016-11-27T07:59:07.816Z,955.49
2016-11-27T08:00:07.369Z,955.48
2016-11-27T08:01:07.873Z,955.51
2016-11-27T08:02:07.427Z,955.56
2016-11-27T08:03:07.874Z,955.52
2016-11-27T08:04:07.732Z,955.53
2016-11-27T08:05:08.415Z,955.53
2016-11-27T08:06:08.087Z,955.54
2016-11-27T08:07:07.605Z,955.51
2016-11-27T08:08:08.249Z,955.52
2016-11-27T08:09:07.896Z,955.48
2016-11-27T08:10:07.402Z,955.51
2016-11-27T08:11:07.979Z,955.49
2016-11-27T08:12:07.549Z,955.49
2016-11-27T08:13:08.261Z,955.54
2016-11-27T08:14:07.829Z,955.49
2016-11-27T08:15:07.365Z,955.49
2016-11-27T08:16:07.929Z,955.50
2016-11-27T08:17:07.715Z,955.48
2016-11-27T08:18:08.385Z,955.47
2016-11-27T08:19:08.034Z,955.44
2016-11-27T08:20:07.631Z,955.47
2016-11-27T08:21:08.281Z,955.45
2016-11-27T08:22:07.769Z,955.45
2016-11-27T08:23:07.264Z,955.44
2016-11-27T08:24:07.765Z,955.48
2016-11-27T08:25:07.282Z,955.46
2016-11-27T08:26:07.932Z,955.43
2016-11-27T08:27:07.472Z,955.40
2016-11-27T08:28:08.124Z,955.36
2016-11-27T08:29:07.664Z,955.38
2016-11-27T08:30:08.259Z,955.38
2016-11-27T08:31:07.828Z,955.41
2016-11-27T08:32:07.318Z,955.44
2016-11-27T08:33:07.862Z,955.44
2016-11-27T08:34:07.892Z,955.38
2016-11-27T08:35:07.455Z,955.45
2016-11-27T08:36:08.098Z,955.45
2016-11-27T08:37:07.641Z,955.40
2016-11-27T08:38:08.312Z,955.49
2016-11-27T08:39:07.957Z,955.44
2016-11-27T08:40:07.568Z,955.47
2016-11-27T08:41:08.159Z,955.46
2016-11-27T08:42:07.721Z,955.44
2016-11-27T08:43:08.354Z,955.47
2016-11-27T08:44:07.941Z,955.54
2016-11-27T08:45:07.487Z,955.47
2016-11-27T08:46:07.973Z,955.48
2016-11-27T08:47:07.486Z,955.44
2016-11-27T08:48:08.153Z,955.43
2016-11-27T08:49:08.001Z,955.41
2016-11-27T08:50:07.911Z,955.43
2016-11-27T08:51:07.503Z,955.41
2016-11-27T08:52:08.251Z,955.47
2016-11-27T08:53:07.865Z,955.47
2016-11-27T08:54:07.472Z,955.45
2016-11-27T08:55:08.253Z,955.42
2016-11-27T08:56:07.817Z,955.45
2016-11-27T08:57:07.454Z,955.45
2016-11-27T08:58:08.180Z,955.50
2016-11-27T08:59:07.790Z,955.46
2016-11-27T09:00:07.386Z,955.46
2016-11-27T09:01:08.602Z,955.48
2016-11-27T09:02:08.280Z,955.54
2016-11-27T09:03:07.742Z,955.53
2016-11-27T09:04:08.365Z,955.51
2016-11-27T09:05:08.003Z,955.55
2016-11-27T09:06:07.481Z,955.58
2016-11-27T09:07:08.093Z,955.54
2016-11-27T09:08:07.632Z,955.56
2016-11-27T09:09:08.313Z,955.52
2016-11-27T09:10:07.904Z,955.57
2016-11-27T09:11:07.691Z,955.58
2016-11-27T09:12:08.336Z,955.58
2016-11-27T09:13:07.947Z,955.60
2016-11-27T09:14:07.551Z,955.58
2016-11-27T09:15:07.998Z,955.57
2016-11-27T09:16:08.065Z,955.51
2016-11-27T09:17:07.863Z,955.54
2016-11-27T09:18:07.486Z,955.54
2016-11-27T09:19:08.097Z,955.53
2016-11-27T09:20:07.759Z,955.55
2016-11-27T09:21:07.323Z,955.56
2016-11-27T09:22:08.023Z,955.58
2016-11-27T09:23:07.636Z,955.64
2016-11-27T09:24:08.261Z,955.62
2016-11-27T09:25:07.876Z,955.62
2016-11-27T09:26:07.448Z,955.62
2016-11-27T09:27:07.971Z,955.66
2016-11-27T09:28:07.598Z,955.67
2016-11-27T09:29:08.104Z,955.67
2016-11-27T09:30:07.715Z,955.62
2016-11-27T09:31:08.366Z,955.62
2016-11-27T09:32:07.935Z,955.67
2016-11-27T09:33:07.598Z,955.64
2016-11-27T09:34:08.149Z,955.70
2016-11-27T09:35:07.717Z,955.64
2016-11-27T09:36:07.806Z,955.66
2016-11-27T09:37:07.347Z,955.65
2016-11-27T09:38:07.976Z,955.73
2016-11-27T09:39:07.491Z,955.73
2016-11-27T09:40:08.189Z,955.69
2016-11-27T09:41:07.741Z,955.65
2016-11-27T09:42:08.348Z,955.65
2016-11-27T09:43:08.231Z,955.60
2016-11-27T09:44:07.793Z,955.60
2016-11-27T09:45:07.388Z,955.61
2016-11-27T09:46:08.078Z,955.59
2016-11-27T09:47:07.576Z,955.60
2016-11-27T09:48:08.186Z,955.62
2016-11-27T09:49:07.725Z,955.57
2016-11-27T09:50:08.419Z,955.57
2016-11-27T09:51:07.995Z,955.59
2016-11-27T09:52:07.448Z,955.61
2016-11-27T09:53:08.061Z,955.62
2016-11-27T09:54:07.556Z,955.61
2016-11-27T09:55:08.187Z,955.63
2016-11-27T09:56:07.805Z,955.54
2016-11-27T09:57:07.305Z,955.53
2016-11-27T09:58:07.897Z,955.55
2016-11-27T09:59:07.486Z,955.56
2016-11-27T10:00:08.123Z,955.54
2016-11-27T10:01:07.681Z,955.55
2016-11-27T10:02:08.322Z,955.54
2016-11-27T10:03:07.982Z,955.55
2016-11-27T10:04:08.279Z,955.57
2016-11-27T10:05:07.869Z,955.54
2016-11-27T10:06:07.410Z,955.53
2016-11-27T10:07:07.987Z,955.54
2016-11-27T10:08:07.616Z,955.53
2016-11-27T10:09:08.337Z,955.50
2016-11-27T10:10:08.040Z,955.52
2016-11-27T10:11:07.549Z,955.51
2016-11-27T10:12:08.128Z,955.53
2016-11-27T10:13:07.686Z,955.48
2016-11-27T10:14:08.467Z,955.44
2016-11-27T10:15:08.113Z,955.44
2016-11-27T10:16:07.696Z,955.45
2016-11-27T10:17:08.420Z,955.48
2016-11-27T10:18:07.967Z,955.41
2016-11-27T10:19:07.452Z,955.41
2016-11-27T10:20:08.108Z,955.38
2016-11-27T10:21:07.771Z,955.39
2016-11-27T10:22:07.400Z,955.37
2016-11-27T10:23:08.017Z,955.40
2016-11-27T10:24:07.669Z,955.37
2016-11-27T10:25:08.267Z,955.39
2016-11-27T10:26:07.909Z,955.40
2016-11-27T10:27:07.418Z,955.37
2016-11-27T10:28:13.593Z,955.40
2016-11-27T10:29:08.372Z,955.37
2016-11-27T10:30:11.394Z,955.41
2016-11-27T10:31:08.043Z,955.35
2016-11-27T10:32:07.630Z,955.35
2016-11-27T10:33:08.269Z,955.38
2016-11-27T10:34:07.839Z,955.35
2016-11-27T10:35:07.419Z,955.33
2016-11-27T10:36:08.020Z,955.32
2016-11-27T10:37:07.620Z,955.31
2016-11-27T10:38:08.173Z,955.34
2016-11-27T10:39:13.223Z,955.34
2016-11-27T10:40:07.714Z,955.30
2016-11-27T10:41:08.289Z,955.27
2016-11-27T10:42:07.879Z,955.31
2016-11-27T10:43:08.246Z,955.28
2016-11-27T10:44:07.848Z,955.28
2016-11-27T10:45:07.549Z,955.30
2016-11-27T10:46:07.636Z,955.27
2016-11-27T10:47:08.300Z,955.33
2016-11-27T10:48:07.927Z,955.30
2016-11-27T10:49:07.552Z,955.30
2016-11-27T10:50:08.088Z,955.34
2016-11-27T10:51:07.581Z,955.30
2016-11-27T10:52:08.167Z,955.33
2016-11-27T10:53:07.747Z,955.32
2016-11-27T10:54:08.357Z,955.30
2016-11-27T10:55:08.212Z,955.29
2016-11-27T10:56:07.900Z,955.30
2016-11-27T10:57:07.562Z,955.30
2016-11-27T10:58:08.946Z,955.27
2016-11-27T10:59:07.519Z,955.27
2016-11-27T11:00:08.151Z,955.26
2016-11-27T11:01:07.708Z,955.26
2016-11-27T11:02:08.359Z,955.24
2016-11-27T11:03:07.945Z,955.21
2016-11-27T11:04:07.465Z,955.23
2016-11-27T11:05:07.999Z,955.26
2016-11-27T11:06:07.782Z,955.30
2016-11-27T11:07:07.270Z,955.27
2016-11-27T11:08:07.879Z,955.27
2016-11-27T11:09:07.516Z,955.25
2016-11-27T11:10:08.099Z,955.22
2016-11-27T11:11:07.689Z,955.24
2016-11-27T11:12:08.360Z,955.20
2016-11-27T11:13:07.925Z,955.21
2016-11-27T11:14:07.446Z,955.17
2016-11-27T11:15:08.030Z,955.19
2016-11-27T11:16:07.632Z,955.19
2016-11-27T11:17:08.323Z,955.21
2016-11-27T11:18:07.988Z,955.14
2016-11-27T11:19:07.628Z,955.16
2016-11-27T11:20:08.222Z,955.11
2016-11-27T11:21:07.838Z,955.11
2016-11-27T11:22:07.398Z,955.11
2016-11-27T11:23:07.977Z,955.07
2016-11-27T11:24:07.503Z,955.06
2016-11-27T11:25:08.061Z,955.04
2016-11-27T11:26:07.746Z,955.04
2016-11-27T11:27:08.406Z,955.00
2016-11-27T11:28:07.998Z,955.03
2016-11-27T11:29:07.540Z,955.09
2016-11-27T11:30:08.197Z,955.00
2016-11-27T11:31:07.919Z,955.01
2016-11-27T11:32:07.429Z,955.00
2016-11-27T11:33:08.021Z,954.97
2016-11-27T11:34:07.536Z,954.99
2016-11-27T11:35:08.113Z,954.96
2016-11-27T11:36:08.308Z,954.98
2016-11-27T11:37:07.937Z,954.93
2016-11-27T11:38:07.572Z,954.92
2016-11-27T11:39:08.162Z,954.93
2016-11-27T11:40:07.732Z,954.91
2016-11-27T11:41:08.439Z,954.86
2016-11-27T11:42:08.054Z,954.88
2016-11-27T11:43:07.695Z,954.89
2016-11-27T11:44:08.363Z,954.92
2016-11-27T11:45:07.978Z,954.91
2016-11-27T11:46:07.449Z,954.91
2016-11-27T11:47:07.962Z,954.90
2016-11-27T11:48:07.533Z,954.88
2016-11-27T11:49:08.091Z,954.87
2016-11-27T11:50:07.662Z,954.83
2016-11-27T11:51:08.260Z,954.79
2016-11-27T11:52:07.829Z,954.79
2016-11-27T11:53:07.349Z,954.71
2016-11-27T11:54:07.983Z,954.67
2016-11-27T11:55:07.569Z,954.69
2016-11-27T11:56:08.195Z,954.64
2016-11-27T11:57:07.882Z,954.65
2016-11-27T11:58:07.490Z,954.62
2016-11-27T11:59:08.151Z,954.60
2016-11-27T12:00:08.055Z,954.61
2016-11-27T12:01:07.677Z,954.63
2016-11-27T12:02:08.257Z,954.61
2016-11-27T12:03:07.908Z,954.58
2016-11-27T12:04:07.453Z,954.55
2016-11-27T12:05:08.035Z,954.52
2016-11-27T12:06:07.614Z,954.50
2016-11-27T12:07:08.225Z,954.48
2016-11-27T12:08:07.852Z,954.50
2016-11-27T12:09:07.339Z,954.50
2016-11-27T12:10:07.959Z,954.48
2016-11-27T12:11:07.583Z,954.46
2016-11-27T12:12:08.291Z,954.41
2016-11-27T12:13:07.950Z,954.42
2016-11-27T12:14:07.521Z,954.37
2016-11-27T12:15:08.103Z,954.34
2016-11-27T12:16:07.585Z,954.31
2016-11-27T12:17:08.331Z,954.34
2016-11-27T12:18:07.959Z,954.35
2016-11-27T12:19:07.487Z,954.37
2016-11-27T12:20:08.921Z,954.35
2016-11-27T12:21:07.789Z,954.40
2016-11-27T12:22:07.337Z,954.40
2016-11-27T12:23:14.620Z,954.43
2016-11-27T12:24:08.632Z,954.43
2016-11-27T12:25:14.751Z,954.37
2016-11-27T12:26:07.460Z,954.38
2016-11-27T12:27:08.084Z,954.35
2016-11-27T12:28:07.590Z,954.27